Time;durP1;ratioP1;P1;durP2;ratioP2;P2;SDS_P1;SDS_P2;PMS_P1;PMS_P2;Temp;Humidity;BMP_temperature;BMP_pressure;BME280_temperature;BME280_humidity;BME280_pressure;Samples;Min_cycle;Max_cycle;Signal;HPM_P1;HPM_P2
2023/06/20 04:34:04;;;;;;;25.13;20.23;;;17.50;99.90;;;;;;700236;23;20432;-87
2023/06/20 04:36:33;;;;;;;24.00;18.48;;;17.50;99.90;;;;;;4901585;29;20063;-93
2023/06/20 04:39:00;;;;;;;23.60;17.75;;;17.60;99.90;;;;;;4902603;29;20435;-94
2023/06/20 04:41:25;;;;;;;22.58;18.27;;;17.70;99.90;;;;;;4920793;29;20115;-95
2023/06/20 04:43:51;;;;;;;22.80;17.48;;;17.70;99.90;;;;;;4924474;29;20047;-94
2023/06/20 04:46:17;;;;;;;20.92;17.15;;;17.80;99.90;;;;;;4955081;29;20050;-94
2023/06/20 04:48:44;;;;;;;18.92;16.13;;;18.00;99.90;;;;;;4925629;29;20102;-94
2023/06/20 04:51:10;;;;;;;20.10;17.35;;;17.70;99.90;;;;;;4918636;29;20062;-95
2023/06/20 04:53:37;;;;;;;24.27;17.55;;;17.90;99.90;;;;;;4919037;29;20119;-95
2023/06/20 04:56:03;;;;;;;17.17;14.02;;;18.00;99.90;;;;;;4903789;29;20040;-95
2023/06/20 04:58:29;;;;;;;22.33;16.52;;;17.90;99.90;;;;;;4916106;29;20024;-88
2023/06/20 05:00:59;;;;;;;21.05;16.25;;;18.10;99.90;;;;;;4927980;29;20083;-91
2023/06/20 05:03:25;;;;;;;20.65;16.33;;;18.20;99.90;;;;;;4927825;29;20040;-92
2023/06/20 05:05:52;;;;;;;18.15;15.60;;;18.40;99.90;;;;;;4917946;29;20063;-87
2023/06/20 05:08:18;;;;;;;19.92;16.55;;;18.40;99.90;;;;;;4917218;29;20039;-87
2023/06/20 05:10:43;;;;;;;21.63;17.10;;;18.70;99.90;;;;;;4921653;29;20409;-88
2023/06/20 05:13:09;;;;;;;19.42;15.68;;;18.60;99.90;;;;;;4938103;29;20043;-88
2023/06/20 05:15:35;;;;;;;21.60;14.45;;;18.50;99.90;;;;;;4926059;29;20036;-88
2023/06/20 05:18:01;;;;;;;18.85;15.20;;;18.70;99.90;;;;;;4936936;29;20040;-89
2023/06/20 05:20:26;;;;;;;17.55;14.68;;;18.70;99.90;;;;;;4921459;29;20495;-92
2023/06/20 05:22:52;;;;;;;21.35;16.05;;;18.80;99.90;;;;;;4940128;29;20035;-93
2023/06/20 05:25:18;;;;;;;22.58;16.35;;;18.90;99.90;;;;;;4940444;29;20043;-93
2023/06/20 05:27:44;;;;;;;19.13;16.35;;;19.00;99.90;;;;;;4937826;29;20044;-92
2023/06/20 05:30:10;;;;;;;23.67;17.13;;;19.10;99.90;;;;;;4921592;29;20040;-88
2023/06/20 05:32:36;;;;;;;20.40;16.08;;;19.10;99.90;;;;;;4906638;29;20035;-93
2023/06/20 05:35:01;;;;;;;19.80;16.88;;;19.20;99.90;;;;;;4924324;28;20098;-94
2023/06/20 05:37:30;;;;;;;20.00;16.73;;;19.20;99.90;;;;;;4941577;29;20055;-96
2023/06/20 05:39:57;;;;;;;21.55;17.98;;;19.10;99.90;;;;;;4957052;29;20035;-96
2023/06/20 05:42:22;;;;;;;23.63;16.83;;;19.20;99.90;;;;;;4954548;29;20043;-92
2023/06/20 05:44:48;;;;;;;20.38;17.60;;;19.20;99.90;;;;;;4956392;29;20046;-92
2023/06/20 05:47:17;;;;;;;22.13;17.83;;;19.20;99.90;;;;;;4937548;29;20387;-91
2023/06/20 05:49:44;;;;;;;20.45;16.40;;;19.20;99.90;;;;;;4938285;28;20383;-92
2023/06/20 05:52:10;;;;;;;22.38;15.65;;;19.30;99.90;;;;;;4941150;29;20035;-92
2023/06/20 05:54:36;;;;;;;21.88;16.90;;;19.30;99.90;;;;;;4963216;29;20043;-92
2023/06/20 05:57:02;;;;;;;21.45;15.75;;;19.30;99.90;;;;;;4937453;29;20433;-93
2023/06/20 05:59:28;;;;;;;21.48;16.05;;;19.40;99.90;;;;;;4952621;29;20232;-92
2023/06/20 06:01:54;;;;;;;21.73;17.80;;;19.50;99.90;;;;;;4936548;29;20035;-92
2023/06/20 06:04:19;;;;;;;21.95;17.40;;;19.70;99.90;;;;;;4936452;29;20036;-93
2023/06/20 06:06:45;;;;;;;24.38;16.92;;;19.70;99.90;;;;;;4936966;29;20182;-95
2023/06/20 06:09:11;;;;;;;22.77;18.77;;;19.70;99.90;;;;;;4952320;28;20159;-96
2023/06/20 06:11:37;;;;;;;21.33;18.40;;;19.70;99.90;;;;;;4952354;28;20039;-91
2023/06/20 06:14:02;;;;;;;24.80;18.17;;;19.90;99.90;;;;;;4953219;28;20049;-92
2023/06/20 06:16:28;;;;;;;21.35;17.63;;;19.80;99.90;;;;;;4937386;29;20082;-92
2023/06/20 06:18:54;;;;;;;20.63;17.90;;;20.10;99.90;;;;;;4937172;28;20046;-92
2023/06/20 06:21:19;;;;;;;22.02;17.30;;;20.20;99.90;;;;;;4937286;29;20039;-92
2023/06/20 06:23:46;;;;;;;22.15;16.80;;;20.30;99.90;;;;;;4936991;29;20505;-90
2023/06/20 06:26:12;;;;;;;20.33;17.17;;;20.30;99.90;;;;;;4936691;29;20039;-92
2023/06/20 06:28:37;;;;;;;20.55;17.08;;;20.40;99.90;;;;;;4937347;29;20042;-93
2023/06/20 06:31:11;;;;;;;20.88;17.05;;;20.60;99.90;;;;;;4936753;29;20047;-90
2023/06/20 06:33:37;;;;;;;20.60;16.55;;;20.70;99.90;;;;;;4936912;28;20047;-91
2023/06/20 06:36:04;;;;;;;19.58;14.90;;;20.80;99.90;;;;;;4952695;28;20535;-93
2023/06/20 06:38:32;;;;;;;19.20;15.30;;;21.10;99.90;;;;;;4936952;29;20039;-92
2023/06/20 06:40:59;;;;;;;24.55;17.40;;;21.50;99.90;;;;;;4952598;28;20061;-90
2023/06/20 06:43:25;;;;;;;23.30;14.93;;;21.80;99.90;;;;;;4936430;29;20049;-91
2023/06/20 06:45:51;;;;;;;20.45;14.95;;;22.00;99.90;;;;;;4936980;28;20035;-92
2023/06/20 06:48:17;;;;;;;19.42;17.17;;;22.30;99.90;;;;;;4938516;29;20035;-93
2023/06/20 06:50:46;;;;;;;17.50;13.85;;;22.40;99.90;;;;;;4957453;29;20039;-93
2023/06/20 06:53:11;;;;;;;17.75;14.80;;;22.50;99.90;;;;;;4938083;29;20047;-92
2023/06/20 06:55:37;;;;;;;20.50;15.25;;;22.70;99.90;;;;;;4936209;29;20050;-92
2023/06/20 06:58:03;;;;;;;15.48;13.85;;;22.80;99.90;;;;;;4936493;29;20322;-92
2023/06/20 07:00:29;;;;;;;19.83;17.83;;;23.00;99.90;;;;;;4936311;29;20405;-93
2023/06/20 07:02:55;;;;;;;18.77;17.00;;;23.10;99.90;;;;;;4951697;29;20047;-89
2023/06/20 07:05:21;;;;;;;18.02;16.17;;;23.20;99.90;;;;;;4952776;29;20031;-92
2023/06/20 07:07:46;;;;;;;24.80;18.52;;;23.30;99.90;;;;;;4951866;28;20035;-91
2023/06/20 07:10:12;;;;;;;27.30;24.95;;;23.40;99.90;;;;;;4952209;28;20597;-91
2023/06/20 07:12:38;;;;;;;35.63;32.28;;;23.40;99.90;;;;;;4952128;28;20505;-92
2023/06/20 07:15:04;;;;;;;35.40;32.35;;;23.20;99.90;;;;;;4935853;28;20086;-94
2023/06/20 07:17:30;;;;;;;42.40;39.38;;;23.20;99.90;;;;;;4952415;28;20043;-91
2023/06/20 07:19:56;;;;;;;41.35;38.35;;;23.20;99.90;;;;;;4936046;29;20080;-92
2023/06/20 07:22:22;;;;;;;42.50;39.40;;;23.20;99.90;;;;;;4952019;28;20081;-91
2023/06/20 07:24:48;;;;;;;55.45;51.10;;;23.30;99.90;;;;;;4952022;29;20039;-88
2023/06/20 07:27:14;;;;;;;43.05;39.92;;;23.20;99.90;;;;;;4952047;29;20046;-93
2023/06/20 07:29:41;;;;;;;35.97;33.28;;;23.20;99.90;;;;;;4936011;28;20408;-91
2023/06/20 07:32:07;;;;;;;46.30;43.00;;;23.20;99.90;;;;;;4949472;28;20039;-84
2023/06/20 07:34:33;;;;;;;35.60;32.85;;;23.20;99.90;;;;;;4952563;28;20368;-84
2023/06/20 07:36:58;;;;;;;36.25;33.35;;;23.30;99.90;;;;;;4950688;28;20188;-85
2023/06/20 07:39:24;;;;;;;42.72;39.45;;;23.20;99.90;;;;;;4951163;28;20043;-84
2023/06/20 07:41:50;;;;;;;38.78;35.92;;;23.20;99.90;;;;;;4934848;29;20050;-87
2023/06/20 07:44:15;;;;;;;32.33;30.00;;;23.10;99.90;;;;;;4922818;29;20119;-93
2023/06/20 07:46:41;;;;;;;30.30;27.77;;;23.40;99.90;;;;;;4929981;29;20039;-90
2023/06/20 07:49:07;;;;;;;39.55;36.20;;;23.70;99.90;;;;;;4922771;29;20198;-92
2023/06/20 07:51:36;;;;;;;53.28;49.72;;;23.80;99.90;;;;;;4923881;29;20050;-92
2023/06/20 07:54:02;;;;;;;46.50;43.17;;;24.00;99.90;;;;;;4920630;29;20047;-95
2023/06/20 07:56:28;;;;;;;63.15;59.17;;;24.30;99.90;;;;;;4919558;29;20485;-93
2023/06/20 07:58:54;;;;;;;80.85;75.88;;;24.20;99.90;;;;;;4935631;29;20091;-87
2023/06/20 08:01:19;;;;;;;86.13;80.65;;;24.10;99.90;;;;;;4919683;29;20043;-92
2023/06/20 08:03:45;;;;;;;91.55;86.03;;;24.10;99.90;;;;;;4936195;29;20043;-92
2023/06/20 08:06:11;;;;;;;86.85;81.32;;;23.90;99.90;;;;;;4935678;29;20043;-96
2023/06/20 08:08:38;;;;;;;67.50;63.28;;;23.80;99.90;;;;;;4924798;28;20039;-91
2023/06/20 08:11:04;;;;;;;51.15;47.75;;;23.50;99.90;;;;;;4950120;28;20254;-92
2023/06/20 08:13:31;;;;;;;63.33;59.28;;;23.50;99.90;;;;;;4920919;28;20043;-90
2023/06/20 08:15:57;;;;;;;53.85;50.05;;;23.40;99.90;;;;;;4949369;29;20043;-90
2023/06/20 08:18:23;;;;;;;58.33;54.22;;;23.40;99.90;;;;;;4935162;28;20089;-95
2023/06/20 08:20:48;;;;;;;43.85;40.67;;;23.20;99.90;;;;;;4942909;29;20424;-95
2023/06/20 08:23:27;;;;;;;34.45;31.92;;;23.20;99.90;;;;;;4934722;29;20194;-93
2023/06/20 08:25:56;;;;;;;30.45;28.00;;;23.20;99.90;;;;;;4945869;29;20039;-94
2023/06/20 08:28:25;;;;;;;30.85;28.42;;;23.00;99.90;;;;;;4900159;29;20173;-94
2023/06/20 08:30:52;;;;;;;31.50;29.20;;;23.00;99.90;;;;;;4900291;29;20510;-90
2023/06/20 08:33:19;;;;;;;23.85;21.70;;;23.00;99.90;;;;;;4900360;29;20071;-93
2023/06/20 08:36:10;;;;;;;25.90;23.52;;;22.80;99.90;;;;;;4931898;29;20302;-96
2023/06/20 08:38:36;;;;;;;24.30;19.05;;;22.80;99.90;;;;;;4957149;28;20146;-90
2023/06/20 08:41:03;;;;;;;22.77;20.33;;;22.90;99.90;;;;;;4942070;29;20047;-92
2023/06/20 08:43:29;;;;;;;19.45;17.55;;;22.90;99.90;;;;;;4945291;29;20039;-93
2023/06/20 08:45:55;;;;;;;19.42;17.38;;;22.90;99.90;;;;;;4953534;29;20046;-91
2023/06/20 08:48:24;;;;;;;23.83;21.88;;;23.10;99.90;;;;;;4937760;29;20050;-96
2023/06/20 08:50:51;;;;;;;22.60;20.70;;;23.20;99.90;;;;;;4945200;28;20023;-96
2023/06/20 08:53:18;;;;;;;23.92;21.63;;;23.20;99.90;;;;;;4954120;29;20111;-96
2023/06/20 08:55:51;;;;;;;27.50;24.88;;;23.30;99.90;;;;;;4943519;29;20047;-96
2023/06/20 08:58:17;;;;;;;24.38;22.00;;;23.40;99.90;;;;;;4939472;29;20039;-84
2023/06/20 09:00:45;;;;;;;28.90;26.75;;;23.50;99.90;;;;;;4950166;29;20039;-91
2023/06/20 09:03:11;;;;;;;27.42;23.20;;;23.70;99.90;;;;;;4950882;29;20114;-90
2023/06/20 09:05:42;;;;;;;39.40;36.45;;;23.90;99.90;;;;;;4933735;29;20610;-90
2023/06/20 09:08:10;;;;;;;47.55;44.22;;;24.10;99.90;;;;;;4949910;29;20333;-90
2023/06/20 09:10:39;;;;;;;61.22;57.35;;;24.30;99.90;;;;;;4949659;29;20066;-87
2023/06/20 09:13:06;;;;;;;76.10;71.30;;;24.50;99.90;;;;;;4933667;29;20047;-87
2023/06/20 09:15:33;;;;;;;94.80;88.55;;;24.70;99.90;;;;;;4949706;28;20055;-90
2023/06/20 09:18:01;;;;;;;121.40;114.32;;;24.80;99.90;;;;;;4934566;28;20051;-91
2023/06/20 09:20:28;;;;;;;113.85;107.03;;;24.90;99.90;;;;;;4949470;28;20073;-91
2023/06/20 09:22:55;;;;;;;98.45;92.57;;;24.80;99.90;;;;;;4933783;29;20062;-93
2023/06/20 09:25:25;;;;;;;176.95;166.40;;;25.10;99.90;;;;;;4934186;29;20627;-88
2023/06/20 09:27:52;;;;;;;153.25;143.82;;;25.10;99.90;;;;;;4935410;29;20118;-92
2023/06/20 09:30:18;;;;;;;178.30;167.70;;;25.30;99.90;;;;;;4951279;29;20040;-88
2023/06/20 09:32:43;;;;;;;186.85;175.75;;;25.40;99.90;;;;;;4949811;29;20049;-90
2023/06/20 09:35:12;;;;;;;221.88;208.63;;;25.40;99.90;;;;;;4962863;29;20151;-95
2023/06/20 09:37:47;;;;;;;147.43;138.43;;;25.50;99.90;;;;;;4948337;29;20059;-90
2023/06/20 09:40:19;;;;;;;218.13;204.98;;;25.50;99.90;;;;;;4957488;29;20043;-90
2023/06/20 09:42:45;;;;;;;;;;;25.70;99.90;;;;;;4936779;29;20090;-88
2023/06/20 09:45:16;;;;;;;113.07;106.40;;;25.90;99.90;;;;;;4935056;28;20449;-90
2023/06/20 09:47:43;;;;;;;157.07;147.88;;;26.10;99.90;;;;;;4933988;29;20043;-89
2023/06/20 09:50:19;;;;;;;192.73;181.18;;;26.20;99.90;;;;;;4934071;29;20063;-88
2023/06/20 09:53:09;;;;;;;222.35;209.00;;;26.40;99.90;;;;;;4935108;29;20043;-89
2023/06/20 09:55:36;;;;;;;407.52;379.88;;;26.60;99.90;;;;;;4952550;28;20046;-89
2023/06/20 09:58:04;;;;;;;465.20;433.10;;;27.00;99.90;;;;;;4935825;29;20036;-84
2023/06/20 10:00:31;;;;;;;605.50;560.55;;;27.20;99.90;;;;;;4951924;29;20502;-81
2023/06/20 10:03:04;;;;;;;599.95;555.40;;;27.20;99.90;;;;;;4952943;29;20043;-81
2023/06/20 10:05:32;;;;;;;620.67;572.58;;;27.40;99.90;;;;;;4952906;28;20119;-82
2023/06/20 10:07:59;;;;;;;855.67;783.58;;;27.70;99.90;;;;;;4954207;29;20039;-82
2023/06/20 10:10:25;;;;;;;970.33;875.00;;;28.10;99.90;;;;;;4953386;28;20263;-82
2023/06/20 10:12:50;;;;;;;1066.80;950.63;;;28.40;99.90;;;;;;4951470;29;20275;-85
2023/06/20 10:15:17;;;;;;;1083.45;945.90;;;28.50;99.90;;;;;;4951562;29;20086;-86
2023/06/20 10:17:47;;;;;;;1300.18;999.90;;;28.60;99.90;;;;;;4951383;28;20046;-86
2023/06/20 10:20:34;;;;;;;1249.20;998.30;;;27.90;99.90;;;;;;4951924;29;20058;-86
2023/06/20 10:23:05;;;;;;;1265.80;991.72;;;27.90;99.90;;;;;;4951551;29;20050;-86
2023/06/20 10:25:32;;;;;;;1315.35;999.90;;;28.10;99.90;;;;;;4951547;29;20451;-86
2023/06/20 10:28:04;;;;;;;1257.72;998.25;;;28.10;99.90;;;;;;4951771;28;20513;-86
2023/06/20 10:30:55;;;;;;;1285.30;998.08;;;28.10;99.90;;;;;;4941482;29;20043;-86
2023/06/20 10:33:24;;;;;;;1213.47;994.75;;;28.20;99.90;;;;;;4948776;29;20287;-88
2023/06/20 10:35:53;;;;;;;1054.30;941.08;;;28.30;99.90;;;;;;4952487;28;20051;-85
2023/06/20 10:38:18;;;;;;;1410.88;999.90;;;28.10;99.80;;;;;;4949906;29;20047;-86
2023/06/20 10:40:44;;;;;;;1284.15;999.90;;;28.20;99.90;;;;;;4946573;29;20058;-93
2023/06/20 10:43:18;;;;;;;1339.80;999.90;;;28.20;99.30;;;;;;4939622;29;20035;-95
2023/06/20 10:45:59;;;;;;;1168.00;975.45;;;27.90;99.80;;;;;;4954621;29;20487;-94
2023/06/20 10:48:26;;;;;;;1236.50;990.63;;;27.80;99.90;;;;;;4953949;29;20039;-93
2023/06/20 10:51:01;;;;;;;1220.65;996.28;;;28.00;99.90;;;;;;4937433;29;20069;-96
2023/06/20 10:53:30;;;;;;;1272.70;998.95;;;27.80;99.90;;;;;;4937795;29;20486;-92
2023/06/20 10:55:55;;;;;;;1064.18;948.63;;;28.00;99.90;;;;;;4952786;28;20039;-92
2023/06/20 10:58:21;;;;;;;1296.35;998.38;;;28.10;99.90;;;;;;4936944;29;20492;-93
2023/06/20 11:00:50;;;;;;;1157.93;976.58;;;28.30;99.90;;;;;;4952713;28;20438;-96
2023/06/20 11:03:17;;;;;;;1227.22;996.47;;;28.40;99.70;;;;;;4953201;29;20035;-93
2023/06/20 11:05:48;;;;;;;1286.20;998.35;;;28.40;99.90;;;;;;4936839;29;20379;-93
2023/06/20 11:08:27;;;;;;;1340.97;999.90;;;28.60;99.90;;;;;;4935407;29;20394;-92
2023/06/20 11:10:53;;;;;;;1348.95;999.90;;;28.60;99.90;;;;;;4936537;29;20048;-93
2023/06/20 11:13:20;;;;;;;1367.60;999.90;;;28.80;99.90;;;;;;4952989;28;20043;-93
2023/06/20 11:15:46;;;;;;;1405.38;999.90;;;28.90;99.90;;;;;;4952866;28;20040;-93
2023/06/20 11:18:11;;;;;;;1525.05;999.90;;;29.00;99.90;;;;;;4937109;29;20310;-95
2023/06/20 11:20:41;;;;;;;1448.18;999.90;;;29.20;99.90;;;;;;4936970;29;20050;-91
2023/06/20 11:23:10;;;;;;;1545.05;999.90;;;29.00;99.30;;;;;;4936348;29;20046;-91
2023/06/20 11:25:38;;;;;;;1566.60;999.90;;;28.90;99.50;;;;;;4953904;29;20050;-94
2023/06/20 11:28:12;;;;;;;1568.18;999.90;;;28.70;99.40;;;;;;4946913;29;20047;-90
2023/06/20 11:30:40;;;;;;;1652.28;999.90;;;28.80;99.20;;;;;;4946864;29;20066;-93
2023/06/20 11:33:10;;;;;;;1595.75;999.90;;;29.00;98.90;;;;;;4954013;29;20489;-96
2023/06/20 11:35:53;;;;;;;1564.72;999.90;;;29.00;98.50;;;;;;4936579;29;20494;-95
2023/06/20 11:38:28;;;;;;;1518.65;999.90;;;28.80;99.20;;;;;;4943906;29;20032;-84
2023/06/20 11:41:04;;;;;;;1556.72;999.90;;;28.90;99.20;;;;;;4946673;29;20058;-85
2023/06/20 11:43:37;;;;;;;1687.18;999.90;;;29.30;99.10;;;;;;4928604;29;20130;-84
2023/06/20 11:46:03;;;;;;;1831.30;999.90;;;29.70;98.60;;;;;;4948702;29;20155;-95
2023/06/20 11:48:29;;;;;;;1936.07;999.90;;;30.00;98.70;;;;;;4949635;29;20070;-95
2023/06/20 11:50:56;;;;;;;1999.90;999.90;;;29.80;97.60;;;;;;4950927;29;20087;-94
2023/06/20 11:53:31;;;;;;;1999.90;999.90;;;29.70;98.00;;;;;;4953328;28;20050;-96
2023/06/20 11:55:59;;;;;;;1999.90;999.90;;;29.70;98.50;;;;;;4953685;29;20434;-96
2023/06/20 11:58:26;;;;;;;1999.90;999.90;;;29.90;98.10;;;;;;4956652;28;20043;-96
2023/06/20 12:01:09;;;;;;;1999.90;999.90;;;29.90;98.30;;;;;;4938026;29;20079;-96
2023/06/20 12:03:38;;;;;;;1999.90;999.90;;;29.90;97.20;;;;;;4954170;28;20047;-96
2023/06/20 12:06:27;;;;;;;1999.90;999.90;;;29.80;97.20;;;;;;4935912;29;20039;-90
2023/06/20 12:09:04;;;;;;;1999.90;999.90;;;30.20;97.30;;;;;;4951954;29;20434;-91
2023/06/20 12:11:30;;;;;;;1999.90;999.90;;;30.40;96.30;;;;;;4935471;29;20048;-93
2023/06/20 12:13:56;;;;;;;1999.90;999.90;;;30.50;96.00;;;;;;4950595;29;20045;-95
2023/06/20 12:16:24;;;;;;;1999.90;999.90;;;30.40;95.80;;;;;;4950965;29;20043;-95
2023/06/20 12:18:51;;;;;;;1999.90;999.90;;;30.40;95.40;;;;;;4934440;29;20497;-91
2023/06/20 12:21:18;;;;;;;1999.90;999.90;;;30.50;95.50;;;;;;4956883;29;20047;-94
2023/06/20 12:23:43;;;;;;;1999.90;999.90;;;30.40;95.70;;;;;;4952375;29;20039;-89
2023/06/20 12:26:09;;;;;;;1999.90;999.90;;;30.70;95.80;;;;;;4958939;28;20121;-93
2023/06/20 12:28:36;;;;;;;1999.90;999.90;;;31.00;95.20;;;;;;4950939;28;20054;-93
2023/06/20 12:31:03;;;;;;;1999.90;999.90;;;31.00;94.80;;;;;;4936611;29;20043;-91
2023/06/20 12:33:29;;;;;;;1999.90;999.90;;;31.00;95.40;;;;;;4951920;28;20039;-93
2023/06/20 12:35:55;;;;;;;1999.90;999.90;;;31.10;94.50;;;;;;4951167;28;20244;-94
2023/06/20 12:38:21;;;;;;;1999.90;999.90;;;30.90;94.90;;;;;;4951626;28;20398;-92
2023/06/20 12:40:46;;;;;;;1999.90;999.90;;;30.80;95.60;;;;;;4967498;28;20490;-88
2023/06/20 12:43:12;;;;;;;1999.90;999.90;;;30.80;94.90;;;;;;4951552;28;20216;-95
2023/06/20 12:45:38;;;;;;;1999.90;999.90;;;30.40;95.00;;;;;;4951308;28;20036;-89
2023/06/20 12:48:04;;;;;;;1999.90;999.90;;;30.40;95.50;;;;;;4934862;29;20237;-92
2023/06/20 12:50:31;;;;;;;1999.90;999.90;;;30.10;95.50;;;;;;4936039;29;20040;-93
2023/06/20 12:52:57;;;;;;;1999.90;999.90;;;29.90;95.80;;;;;;4951137;29;20047;-94
2023/06/20 12:55:23;;;;;;;1999.90;999.90;;;29.90;96.20;;;;;;4951026;29;20059;-91
2023/06/20 12:57:49;;;;;;;1999.90;999.90;;;29.80;96.00;;;;;;4934022;29;20124;-93
2023/06/20 13:00:16;;;;;;;1999.90;999.90;;;30.00;95.80;;;;;;4934409;29;20047;-94
2023/06/20 13:02:42;;;;;;;1999.90;999.90;;;30.20;96.20;;;;;;4934840;29;20044;-90
2023/06/20 13:05:08;;;;;;;1999.90;999.90;;;30.60;95.90;;;;;;4952081;29;20046;-93
2023/06/20 13:07:35;;;;;;;1999.90;999.90;;;30.80;95.90;;;;;;4951868;29;20039;-91
2023/06/20 13:10:02;;;;;;;1999.90;999.90;;;31.10;95.90;;;;;;4950588;29;20105;-92
2023/06/20 13:12:30;;;;;;;1999.90;999.90;;;30.90;94.80;;;;;;4933568;29;20513;-94
2023/06/20 13:14:56;;;;;;;1999.90;999.90;;;30.90;95.30;;;;;;4934771;29;20043;-94
2023/06/20 13:17:22;;;;;;;1999.90;999.90;;;30.90;95.80;;;;;;4958594;29;20027;-93
2023/06/20 13:19:48;;;;;;;1999.90;999.90;;;30.70;95.00;;;;;;4945595;28;20043;-92
2023/06/20 13:22:13;;;;;;;1999.90;999.90;;;30.30;95.10;;;;;;4938575;29;20042;-90
2023/06/20 13:24:42;;;;;;;1999.90;999.90;;;30.20;95.10;;;;;;4951441;29;20040;-89
2023/06/20 13:27:09;;;;;;;1999.90;999.90;;;30.20;95.60;;;;;;4934216;29;20043;-91
2023/06/20 13:29:35;;;;;;;1999.90;999.90;;;30.10;95.00;;;;;;4935320;29;20290;-90
2023/06/20 13:32:02;;;;;;;1999.90;999.90;;;30.10;95.50;;;;;;4937539;29;20075;-92
2023/06/20 13:34:28;;;;;;;1999.90;999.90;;;30.20;95.00;;;;;;4937066;28;20450;-89
2023/06/20 13:36:54;;;;;;;1999.90;999.90;;;30.30;95.20;;;;;;4935818;29;20093;-88
2023/06/20 13:39:22;;;;;;;1999.90;999.90;;;30.40;95.60;;;;;;4952938;29;20035;-92
2023/06/20 13:41:47;;;;;;;1999.90;999.90;;;30.70;95.40;;;;;;4936893;29;20039;-89
2023/06/20 13:44:13;;;;;;;1999.90;999.90;;;30.70;94.70;;;;;;4953463;29;20050;-87
2023/06/20 13:46:39;;;;;;;1999.90;999.90;;;30.50;94.70;;;;;;4960902;28;20355;-88
2023/06/20 13:49:05;;;;;;;1999.90;999.90;;;30.20;94.90;;;;;;4952535;29;20035;-90
2023/06/20 13:51:32;;;;;;;1999.90;999.90;;;29.80;95.20;;;;;;4936612;29;20043;-87
2023/06/20 13:53:57;;;;;;;1999.90;999.90;;;29.80;95.60;;;;;;4937694;29;20049;-88
2023/06/20 13:56:24;;;;;;;1999.90;999.90;;;29.90;95.30;;;;;;4936710;29;20489;-89
2023/06/20 13:58:50;;;;;;;1999.90;999.90;;;30.40;95.40;;;;;;4937349;29;20039;-93
2023/06/20 14:01:34;;;;;;;1999.90;999.90;;;30.60;95.30;;;;;;4939080;29;20050;-96
2023/06/20 14:04:01;;;;;;;1999.90;999.90;;;30.80;95.20;;;;;;4937076;29;20040;-87
2023/06/20 14:06:28;;;;;;;1999.90;999.90;;;31.00;95.20;;;;;;4937718;29;20371;-92
2023/06/20 14:08:54;;;;;;;1999.90;999.90;;;31.10;94.60;;;;;;4950416;28;20046;-86
2023/06/20 14:11:19;;;;;;;1999.90;999.90;;;31.40;94.60;;;;;;4937243;29;20043;-89
2023/06/20 14:13:45;;;;;;;1999.90;999.90;;;31.30;94.40;;;;;;4940091;29;20040;-89
2023/06/20 14:16:11;;;;;;;1999.90;999.90;;;31.20;93.90;;;;;;4959608;28;20064;-90
2023/06/20 14:18:36;;;;;;;1999.90;999.90;;;31.00;94.20;;;;;;4953003;29;20039;-92
2023/06/20 14:21:02;;;;;;;1999.90;999.90;;;30.80;94.40;;;;;;4936798;29;20055;-87
2023/06/20 14:23:28;;;;;;;1999.90;999.90;;;30.90;94.40;;;;;;4933899;29;20048;-90
2023/06/20 14:25:53;;;;;;;1999.90;999.90;;;30.90;94.80;;;;;;4945960;29;20032;-89
2023/06/20 14:28:24;;;;;;;1999.90;999.90;;;31.10;94.60;;;;;;4917955;29;20078;-89
2023/06/20 14:30:50;;;;;;;1999.90;999.90;;;31.20;94.40;;;;;;4917168;29;20040;-90
2023/06/20 14:33:15;;;;;;;1999.90;999.90;;;31.30;94.80;;;;;;4927620;29;20198;-91
2023/06/20 14:35:41;;;;;;;1999.90;999.90;;;31.30;94.70;;;;;;4951769;29;20146;-89
2023/06/20 14:38:07;;;;;;;1999.90;999.90;;;31.20;94.30;;;;;;4936868;29;20047;-90
2023/06/20 14:40:35;;;;;;;1999.90;999.90;;;30.90;94.20;;;;;;4953068;28;20220;-92
2023/06/20 14:43:01;;;;;;;1999.90;999.90;;;30.50;94.50;;;;;;4952910;29;20509;-95
2023/06/20 14:45:27;;;;;;;1999.90;999.90;;;30.30;95.30;;;;;;4936886;29;20043;-89
2023/06/20 14:47:52;;;;;;;1999.90;999.90;;;30.20;95.20;;;;;;4951646;29;20074;-95
2023/06/20 14:50:21;;;;;;;1999.90;999.90;;;30.20;94.80;;;;;;4937164;29;20078;-91
2023/06/20 14:52:47;;;;;;;1999.90;999.90;;;30.00;95.10;;;;;;4953755;28;20140;-88
2023/06/20 14:55:13;;;;;;;1999.90;999.90;;;30.00;95.10;;;;;;4953675;28;20077;-89
2023/06/20 14:57:39;;;;;;;1999.90;999.90;;;30.10;95.30;;;;;;4936905;29;20042;-92
2023/06/20 15:00:05;;;;;;;1999.90;999.90;;;30.30;95.80;;;;;;4952626;29;20053;-90
2023/06/20 15:02:31;;;;;;;1999.90;999.90;;;30.50;95.20;;;;;;4953346;29;20490;-89
2023/06/20 15:04:57;;;;;;;1999.90;999.90;;;30.80;94.70;;;;;;4936505;29;20043;-89
2023/06/20 15:07:22;;;;;;;1999.90;999.90;;;30.90;94.80;;;;;;4952573;29;20035;-91
2023/06/20 15:09:48;;;;;;;1999.90;999.90;;;30.90;94.20;;;;;;4937701;29;20087;-90
2023/06/20 15:12:14;;;;;;;1999.90;999.90;;;30.70;94.60;;;;;;4969765;29;20039;-95
2023/06/20 15:14:40;;;;;;;1999.90;999.90;;;30.60;94.60;;;;;;4959567;29;20441;-95
2023/06/20 15:17:06;;;;;;;1999.90;999.90;;;30.40;95.00;;;;;;4953244;29;20071;-91
2023/06/20 15:19:32;;;;;;;1999.90;999.90;;;30.40;95.20;;;;;;4952378;28;20143;-88
2023/06/20 15:21:58;;;;;;;1999.90;999.90;;;30.40;95.00;;;;;;4949817;28;20120;-88
2023/06/20 15:24:23;;;;;;;1999.90;999.90;;;30.30;94.70;;;;;;4932841;29;20056;-89
2023/06/20 15:26:49;;;;;;;1999.90;999.90;;;30.20;94.90;;;;;;4939011;29;20042;-92
2023/06/20 15:29:18;;;;;;;1999.90;999.90;;;30.20;94.80;;;;;;4941139;28;20042;-91
2023/06/20 15:31:44;;;;;;;1999.90;999.90;;;30.30;94.80;;;;;;4957415;28;20067;-87
2023/06/20 15:34:09;;;;;;;1999.90;999.90;;;30.30;94.50;;;;;;4949975;28;20086;-90
2023/06/20 15:36:35;;;;;;;1999.90;999.90;;;30.40;94.80;;;;;;4957767;28;20047;-88
2023/06/20 15:39:02;;;;;;;1999.90;999.90;;;30.60;95.30;;;;;;4949085;29;20386;-90
2023/06/20 15:41:30;;;;;;;1999.90;999.90;;;30.50;94.90;;;;;;4962915;28;20473;-89
2023/06/20 15:43:55;;;;;;;1999.90;999.90;;;30.40;94.80;;;;;;4957914;28;20129;-89
2023/06/20 15:46:21;;;;;;;1999.90;999.90;;;30.30;94.50;;;;;;4957289;28;20114;-89
2023/06/20 15:48:58;;;;;;;1999.90;999.90;;;30.00;94.80;;;;;;4943997;29;20514;-89
2023/06/20 15:51:26;;;;;;;1999.90;999.90;;;29.90;94.90;;;;;;4955738;28;20486;-90
2023/06/20 15:53:52;;;;;;;1999.90;999.90;;;30.00;95.70;;;;;;4933810;29;20171;-88
2023/06/20 15:56:17;;;;;;;1999.90;999.90;;;30.30;95.20;;;;;;4934002;29;20125;-89
2023/06/20 15:58:46;;;;;;;1999.90;999.90;;;30.40;94.60;;;;;;4931023;29;20126;-90
2023/06/20 16:01:12;;;;;;;1999.90;999.90;;;30.50;95.00;;;;;;4963025;28;20071;-89
2023/06/20 16:03:38;;;;;;;1999.90;999.90;;;30.40;94.90;;;;;;4950739;28;20082;-90
2023/06/20 16:06:04;;;;;;;1999.90;999.90;;;30.40;95.20;;;;;;4939929;28;20040;-89
2023/06/20 16:08:30;;;;;;;1999.90;999.90;;;30.40;95.70;;;;;;4950059;29;20039;-89
2023/06/20 16:10:56;;;;;;;1999.90;999.90;;;30.20;95.60;;;;;;4939113;28;20043;-89
2023/06/20 16:13:22;;;;;;;1999.90;999.90;;;30.00;95.90;;;;;;4944158;29;20051;-89
2023/06/20 16:15:48;;;;;;;1999.90;999.90;;;29.90;96.00;;;;;;4952744;28;20046;-89
2023/06/20 16:18:13;;;;;;;1999.90;999.90;;;29.80;95.80;;;;;;4940591;29;20509;-89
2023/06/20 16:20:39;;;;;;;1999.90;999.90;;;29.80;95.80;;;;;;4940461;28;20207;-89
2023/06/20 16:23:05;;;;;;;1999.90;999.90;;;29.60;96.00;;;;;;4937761;29;20122;-89
2023/06/20 16:25:31;;;;;;;1999.90;999.90;;;29.30;96.30;;;;;;4932372;28;20035;-90
2023/06/20 16:27:57;;;;;;;1941.00;999.90;;;29.30;96.50;;;;;;4954247;28;20046;-89
2023/06/20 16:30:23;;;;;;;1999.90;999.90;;;29.30;96.50;;;;;;4946459;28;20039;-88
2023/06/20 16:32:49;;;;;;;1999.90;999.90;;;29.20;96.80;;;;;;4931763;29;20035;-89
2023/06/20 16:35:15;;;;;;;1999.90;999.90;;;29.10;96.80;;;;;;4951216;28;20601;-90
2023/06/20 16:37:40;;;;;;;1999.90;999.90;;;29.00;96.90;;;;;;4951608;28;20430;-84
2023/06/20 16:40:07;;;;;;;1887.95;999.90;;;28.90;97.20;;;;;;4931907;29;20126;-88
2023/06/20 16:42:33;;;;;;;1889.63;999.90;;;28.90;97.20;;;;;;4933693;29;20051;-89
2023/06/20 16:45:00;;;;;;;1925.68;999.90;;;28.90;97.40;;;;;;4948733;29;20035;-90